^^
Datos históricos de la estación: Murcia-Puente Tocinos
Diario Informe para Julio 16, 2019 Unidades:  Ingés    Métrico   Ambas
Diario Semanal Mensual Anual
  Máxima: Mínima: Promedio:
Temperatura: 77.2 °F 64.8 °F 71.4 °F
Punto de rocio: 61.3 °F 47.7 °F 55.4 °F
Humedad: 73% 42.4% 57%
Velocidad viento: 10mph 0mph 4.5mph
Racha viento: 20mph - -
Viento- - Este
Presión: 30.1 in 30 in -
Precipitación: 0 in    
 
 
Tabla de datos para Julio 16, 2019
Hora Temperatura Punto de rocio Presión Viento Velocidad viento Racha viento Humedad Intensidad lluvia(por hora) Nubes
00:04 71.8 °F 47.7 °F 30 in NNE 3.6 mph 6 mph 42.4% 0 in
00:09 71.4 °F 47.8 °F 30 in NNE 3.7 mph 6.9 mph 43.1% 0 in
00:14 71.1 °F 48 °F 30 in NNE 4 mph 7 mph 44% 0 in
00:19 71.1 °F 48 °F 30 in North 3.7 mph 5.2 mph 44% 0 in
00:24 70.9 °F 48.4 °F 30 in NNE 2.9 mph 7.6 mph 45% 0 in
00:29 70.5 °F 48.4 °F 30 in NNE 3.2 mph 8.1 mph 45.6% 0 in
00:34 70.2 °F 48.6 °F 30 in NE 4 mph 8 mph 46.5% 0 in
00:39 69.8 °F 48.6 °F 30 in NE 4.1 mph 8.1 mph 47% 0 in
00:44 69.4 °F 48.7 °F 30 in NNE 4.3 mph 8 mph 47.7% 0 in
00:49 69.3 °F 48.7 °F 30 in NE 4.2 mph 7 mph 48% 0 in
00:54 69.1 °F 48.7 °F 30 in NNE 4 mph 6.9 mph 48.3% 0 in
00:59 69.1 °F 49.1 °F 30 in North 3.9 mph 7 mph 49% 0 in
01:04 68.9 °F 48.9 °F 30 in NNE 3.6 mph 5.8 mph 49% 0 in
01:09 68.9 °F 49.5 °F 30 in NNE 3.4 mph 6.2 mph 50% 0 in
01:14 68.7 °F 49.6 °F 30 in NNE 2.9 mph 6.4 mph 50.5% 0 in
01:19 68.5 °F 49.8 °F 30 in NNE 2.9 mph 7 mph 51.1% 0 in
01:24 68.5 °F 50.2 °F 30 in NE 3.1 mph 5 mph 52% 0 in
01:29 68.5 °F 50.7 °F 30 in NNE 3 mph 5.8 mph 53% 0 in
01:34 68.4 °F 50.5 °F 30 in NNE 2.9 mph 6 mph 53% 0 in
01:39 68.2 °F 50.7 °F 30 in NNE 2.9 mph 5 mph 53.7% 0 in
01:44 68.2 °F 50.9 °F 30 in NNE 2.9 mph 5 mph 54% 0 in
01:49 68.2 °F 50.9 °F 30 in NE 2.9 mph 5 mph 54% 0 in
01:54 68 °F 50.7 °F 30 in NE 2.9 mph 5 mph 54% 0 in
01:59 67.8 °F 50.2 °F 30 in NE 2.9 mph 5 mph 53.2% 0 in
02:04 67.8 °F 49.5 °F 30 in NE 2.9 mph 5 mph 52% 0 in
02:09 68 °F 48.9 °F 30 in NE 3 mph 5 mph 50.7% 0 in
02:14 68.2 °F 48.9 °F 30 in NE 3.1 mph 5.2 mph 50.2% 0 in
02:19 68.2 °F 49.5 °F 30 in NE 3.1 mph 5 mph 51% 0 in
02:24 67.8 °F 49.1 °F 30 in NNE 3.1 mph 5.2 mph 51% 0 in
02:29 67.8 °F 48.9 °F 30 in NE 3 mph 5.4 mph 51% 0 in
02:34 67.6 °F 48.7 °F 30 in NE 2.9 mph 6.2 mph 51% 0 in
02:39 67.3 °F 48.6 °F 30 in NE 3 mph 6 mph 50.8% 0 in
02:44 67.1 °F 48.6 °F 30 in NE 3.6 mph 5 mph 51.1% 0 in
02:49 67.1 °F 48.4 °F 30 in NNE 3.6 mph 5 mph 51.1% 0 in
02:54 67.1 °F 49.1 °F 30 in NE 2.9 mph 4 mph 52.3% 0 in
02:59 67.1 °F 49.6 °F 30 in NNE 2.2 mph 5 mph 53.6% 0 in
03:04 67.1 °F 50 °F 30 in NNE 2 mph 5 mph 54.4% 0 in
03:09 66.9 °F 50.7 °F 30 in NNE 1.9 mph 4.6 mph 55.8% 0 in
03:14 66.9 °F 50.9 °F 30 in NNE 1.8 mph 5 mph 56.5% 0 in
03:19 66.9 °F 51.3 °F 30 in NNE 1.2 mph 2 mph 57% 0 in
03:24 67.1 °F 51.6 °F 30 in Calm     57.8% 0 in
03:29 67.1 °F 52.3 °F 30 in Calm     58.9% 0 in
03:34 67.1 °F 52 °F 30 in Calm     58.2% 0 in
03:39 67.1 °F 51.4 °F 30 in Calm     57% 0 in
03:44 67.1 °F 50.5 °F 30 in Calm     55.4% 0 in
03:49 67.1 °F 50.4 °F 30 in Calm     55.1% 0 in
03:54 67.1 °F 50.5 °F 30 in Calm   2.9 mph 55.1% 0 in
03:59 67.3 °F 50.4 °F 30 in Calm   3 mph 54.5% 0 in
04:04 67.3 °F 49.8 °F 30 in Calm   3.6 mph 53.5% 0 in
04:09 67.3 °F 49.3 °F 30 in Sur 0.7 mph 4 mph 52.4% 0 in
04:14 67.5 °F 48.9 °F 30 in Sur 1.8 mph 3 mph 51.4% 0 in
04:19 67.5 °F 49.8 °F 30 in Sur 1.2 mph   53.3% 0 in
04:24 67.5 °F 50.5 °F 30 in Calm     54.8% 0 in
04:29 67.5 °F 49.8 °F 30 in Calm     53.5% 0 in
04:34 67.3 °F 48.9 °F 30 in Calm   3.6 mph 52% 0 in
04:39 67.1 °F 48.7 °F 30 in SSE 0.7 mph 5.9 mph 51.6% 0 in
04:44 66.7 °F 48.4 °F 30 in SSE 2 mph 6 mph 51.8% 0 in
04:49 66.6 °F 48.9 °F 30 in SSE 2.5 mph 6 mph 52.9% 0 in
04:54 66.4 °F 49.1 °F 30 in Sur 3.6 mph 5.8 mph 53.9% 0 in
04:59 66.4 °F 49.3 °F 30 in Sur 3.4 mph 6 mph 54% 0 in
05:04 66.4 °F 49.6 °F 30 in SSO 3.1 mph 6 mph 55% 0 in
05:09 66.6 °F 49.8 °F 30 in Sur 3 mph 5 mph 55% 0 in
05:14 66.6 °F 49.8 °F 30 in SSO 2.9 mph 5.8 mph 54.9% 0 in
05:19 66.6 °F 49.5 °F 30 in Sur 3.1 mph 6 mph 54% 0 in
05:24 66.6 °F 49.5 °F 30 in SSO 3.6 mph 6 mph 54% 0 in
05:29 66.6 °F 49.1 °F 30 in SSO 3.4 mph 6.9 mph 53.6% 0 in
05:34 66.6 °F 48.9 °F 30 in SO 3.1 mph 7 mph 53% 0 in
05:39 66.6 °F 48.6 °F 30 in SO 3.2 mph 7 mph 52.3% 0 in
05:44 66.6 °F 48.4 °F 30 in OSO 3.6 mph 7 mph 52% 0 in
05:49 66.6 °F 48.4 °F 30 in SO 3.2 mph 6 mph 52% 0 in
05:54 66.6 °F 48.4 °F 30 in SSO 2.4 mph 6.4 mph 52% 0 in
05:59 66.6 °F 48.4 °F 30 in SSO 2.8 mph 7.4 mph 52% 0 in
06:04 66.6 °F 48.9 °F 30 in Sur 3.6 mph 7 mph 53% 0 in
06:09 66.4 °F 48.7 °F 30 in SE 3.6 mph 6.2 mph 53.2% 0 in
06:14 65.8 °F 48.7 °F 30 in SE 3.6 mph 6 mph 54% 0 in
06:19 65.7 °F 48.7 °F 30 in SE 3.4 mph 5 mph 54.4% 0 in
06:24 65.3 °F 48.7 °F 30 in SE 2.9 mph 5 mph 55% 0 in
06:29 64.9 °F 48.4 °F 30 in SE 2.7 mph 5 mph 55% 0 in
06:34 64.8 °F 48.6 °F 30 in SE 2.4 mph 3 mph 55.8% 0 in
06:39 64.8 °F 48.7 °F 30 in SE 2.2 mph 3 mph 56% 0 in
06:44 64.8 °F 48.7 °F 30 in SE 1.8 mph 3.5 mph 56% 0 in
06:49 64.9 °F 48.9 °F 30 in SE 1.2 mph 3 mph 56% 0 in
06:54 64.9 °F 48.4 °F 30 in Calm   3.5 mph 55.1% 0 in
06:59 65.1 °F 48.6 °F 30 in OSO 0.5 mph 3.6 mph 55% 0 in
07:04 65.1 °F 48.6 °F 30 in Oeste 1.4 mph 4 mph 55% 0 in
07:09 65.1 °F 48.6 °F 30 in ONO 1.6 mph 3.5 mph 55% 0 in
07:14 65.1 °F 48.6 °F 30 in ONO 1.8 mph 3 mph 55.2% 0 in
07:19 65.1 °F 48.7 °F 30 in ONO 1.7 mph 3 mph 55.2% 0 in
07:24 65.5 °F 48.9 °F 30 in Oeste 1.4 mph 3.6 mph 55.2% 0 in
07:29 65.7 °F 48.9 °F 30 in ESE 1.6 mph 4.6 mph 55% 0 in
07:34 65.7 °F 48.9 °F 30 in ESE 1.8 mph 5 mph 55% 0 in
07:39 65.7 °F 48.9 °F 30 in ESE 1.8 mph 5 mph 55% 0 in
07:44 65.8 °F 49.1 °F 30 in ESE 1.8 mph 4 mph 55% 0 in
07:49 66 °F 49.5 °F 30 in ESE 1.7 mph 3.1 mph 55% 0 in
07:54 66.4 °F 49.5 °F 30 in ESE 1.4 mph 4 mph 54.7% 0 in
07:59 66.6 °F 49.8 °F 30 in ESE 1.6 mph 5 mph 54.9% 0 in
08:04 66.7 °F 49.8 °F 30.1 in SO 2 mph 5 mph 54.5% 0 in
08:09 67.1 °F 49.6 °F 30.1 in SO 1.8 mph 4 mph 53.4% 0 in
08:14 67.5 °F 48.7 °F 30.1 in OSO 1.4 mph 5.2 mph 51% 0 in
08:19 67.6 °F 48.6 °F 30.1 in OSO 1.7 mph 5 mph 50.3% 0 in
08:24 68.2 °F 48.6 °F 30.1 in SO 2.4 mph 5.9 mph 49.7% 0 in
08:29 68.4 °F 48 °F 30.1 in OSO 2.5 mph 6 mph 48.2% 0 in
08:34 68.4 °F 47.8 °F 30.1 in OSO 2.9 mph 6 mph 48% 0 in
08:39 68.5 °F 48 °F 30.1 in SO 2.6 mph 5 mph 48% 0 in
08:44 68.7 °F 47.8 °F 30.1 in Oeste 2 mph 5 mph 47.4% 0 in
08:49 69.1 °F 48 °F 30.1 in ONO 1.9 mph 5 mph 47% 0 in
08:54 69.6 °F 48.6 °F 30.1 in ONO 1.8 mph 2 mph 47% 0 in
08:59 70.2 °F 48.6 °F 30.1 in OSO 1.2 mph 3.5 mph 46.2% 0 in
09:04 70.7 °F 48.9 °F 30.1 in Calm   3.5 mph 46% 0 in
09:09 71.2 °F 49.5 °F 30.1 in ENE 0.6 mph 4.7 mph 45.9% 0 in
09:14 71.6 °F 49.3 °F 30.1 in NNE 1.8 mph 5 mph 45.1% 0 in
09:19 72 °F 49.3 °F 30.1 in NNE 1.8 mph 4.6 mph 44.9% 0 in
09:24 72.1 °F 49.1 °F 30.1 in NE 1.8 mph 5 mph 44% 0 in
09:29 72.3 °F 48.7 °F 30.1 in Este 1.8 mph 5 mph 43.1% 0 in
09:34 72.3 °F 48.7 °F 30.1 in ESE 1.8 mph 5 mph 43.1% 0 in
09:39 72.5 °F 48.7 °F 30.1 in ESE 2 mph 5.4 mph 43.1% 0 in
09:44 72.3 °F 48.6 °F 30.1 in ESE 2.4 mph 6 mph 43% 0 in
09:49 72.1 °F 48.7 °F 30.1 in ENE 2.7 mph 6.9 mph 43.5% 0 in
09:54 72 °F 49.5 °F 30.1 in NNE 3.1 mph 7 mph 44.9% 0 in
09:59 72 °F 51.3 °F 30.1 in NE 3.3 mph 7.4 mph 48.1% 0 in
10:04 72 °F 52.2 °F 30.1 in ENE 3.6 mph 9.7 mph 49.9% 0 in
10:09 71.8 °F 52 °F 30.1 in NE 4 mph 10 mph 49.9% 0 in
10:14 71.4 °F 52.3 °F 30.1 in NNE 4.7 mph 8 mph 50.9% 0 in
10:19 71.6 °F 52.5 °F 30.1 in NNE 4.1 mph 6 mph 51% 0 in
10:24 72.1 °F 52.9 °F 30.1 in NE 3.1 mph 6.9 mph 50.7% 0 in
10:29 72.5 °F 53.2 °F 30.1 in NNE 3.1 mph 7 mph 50.8% 0 in
10:34 72.9 °F 53.8 °F 30.1 in NE 3.1 mph 9.7 mph 51.3% 0 in
10:39 73 °F 54.3 °F 30.1 in Este 3.5 mph 10 mph 52% 0 in
10:44 73.2 °F 54.9 °F 30.1 in Este 4.3 mph 9.2 mph 52.6% 0 in
10:49 73.4 °F 55.2 °F 30.1 in ENE 4.3 mph 9.2 mph 52.9% 0 in
10:54 73.8 °F 55.4 °F 30.1 in ENE 4.3 mph 9 mph 52.9% 0 in
10:59 73.8 °F 55.9 °F 30.1 in NE 4.2 mph 9.2 mph 53.6% 0 in
11:04 73.8 °F 56.3 °F 30.1 in NNE 4 mph 9 mph 54.2% 0 in
11:09 73.9 °F 56.7 °F 30.1 in ENE 3.6 mph 8.1 mph 54.6% 0 in
11:14 74.1 °F 57.2 °F 30.1 in NE 2.9 mph 8.1 mph 55.7% 0 in
11:19 74.3 °F 57.6 °F 30.1 in North 3.4 mph 7 mph 56% 0 in
11:24 74.5 °F 57.7 °F 30.1 in NE 4.3 mph 7 mph 56.1% 0 in
11:29 74.8 °F 57.6 °F 30.1 in NNE 3.7 mph 5.8 mph 55% 0 in
11:34 75.2 °F 57.7 °F 30.1 in Este 2.4 mph 6.9 mph 54.7% 0 in
11:39 75.4 °F 57.4 °F 30.1 in ENE 3.3 mph 15 mph 53.5% 0 in
11:44 75.4 °F 57.6 °F 30.1 in Este 5.2 mph 15 mph 53.8% 0 in
11:49 75.6 °F 57.2 °F 30.1 in ENE 5.6 mph 13.8 mph 53% 0 in
11:54 75.6 °F 57.6 °F 30.1 in Este 6.4 mph 15 mph 53.9% 0 in
11:59 75.6 °F 58.8 °F 30.1 in ENE 6.8 mph 15.2 mph 55.9% 0 in
12:04 75.6 °F 59.4 °F 30.1 in ENE 7.6 mph 16.1 mph 57% 0 in
12:09 75.7 °F 59.7 °F 30.1 in ENE 7.5 mph 16 mph 57.3% 0 in
12:14 75.7 °F 60.1 °F 30.1 in ENE 7.4 mph 16.1 mph 58.3% 0 in
12:19 75.4 °F 60.3 °F 30.1 in ENE 8 mph 16.1 mph 59.6% 0 in
12:24 75 °F 60.6 °F 30.1 in Este 9.2 mph 16 mph 60.8% 0 in
12:29 75.4 °F 60.6 °F 30.1 in NE 8.6 mph 17.5 mph 60.3% 0 in
12:34 75.2 °F 60.4 °F 30.1 in NE 7.6 mph 17 mph 60% 0 in
12:39 75.2 °F 60.8 °F 30.1 in NE 8.3 mph 15.2 mph 60.9% 0 in
12:44 75.6 °F 61 °F 30.1 in ENE 9.7 mph 15 mph 60.9% 0 in
12:49 75.6 °F 60.8 °F 30.1 in ENE 9.4 mph 17.3 mph 60.2% 0 in
12:54 76.1 °F 61 °F 30.1 in ENE 8.7 mph 17.3 mph 59.6% 0 in
12:59 76.3 °F 61 °F 30.1 in NE 8.9 mph 19.7 mph 59.2% 0 in
13:04 76.1 °F 61 °F 30.1 in ENE 9.2 mph 20 mph 59.7% 0 in
13:09 75.6 °F 60.6 °F 30.1 in NE 9.4 mph 19 mph 59.7% 0 in
13:14 75.6 °F 60.4 °F 30.1 in NE 10 mph 19 mph 59.3% 0 in
13:19 75.9 °F 60.6 °F 30.1 in NE 9.7 mph 19 mph 59% 0 in
13:24 76.3 °F 60.4 °F 30.1 in ENE 9.2 mph 16.1 mph 58.3% 0 in
13:29 76.6 °F 60.8 °F 30.1 in ENE 9.2 mph 17.3 mph 58% 0 in
13:34 76.5 °F 60.6 °F 30.1 in ENE 9.2 mph 17 mph 58.1% 0 in
13:39 76.3 °F 60.3 °F 30.1 in ENE 8.6 mph 15.2 mph 57.8% 0 in
13:44 76.8 °F 60.3 °F 30.1 in NE 7.6 mph 16.8 mph 56.5% 0 in
13:49 76.8 °F 59.7 °F 30.1 in ENE 7.8 mph 17.3 mph 55.6% 0 in
13:54 76.8 °F 59.5 °F 30.1 in ENE 8.1 mph 19 mph 55.2% 0 in
13:59 76.8 °F 59.2 °F 30.1 in NE 8.1 mph 19 mph 54.5% 0 in
14:04 76.8 °F 59.4 °F 30.1 in ENE 8.1 mph 18.4 mph 54.6% 0 in
14:09 77.2 °F 59.4 °F 30.1 in Este 8.3 mph 18 mph 54.2% 0 in
14:14 77 °F 59.7 °F 30.1 in Este 8.7 mph 16.1 mph 55.1% 0 in
14:19 76.8 °F 59.9 °F 30.1 in ENE 8.7 mph 16 mph 56% 0 in
14:24 76.8 °F 59.7 °F 30 in ENE 8.7 mph 17.3 mph 55.6% 0 in
14:29 76.5 °F 59.7 °F 30 in ENE 8.9 mph 17.3 mph 56% 0 in
14:34 76.6 °F 60.1 °F 30 in NE 9.2 mph 16.1 mph 56.5% 0 in
14:39 76.6 °F 60.1 °F 30 in Este 8.9 mph 16.1 mph 56.6% 0 in
14:44 76.6 °F 60.3 °F 30 in ENE 8.5 mph 17.5 mph 57% 0 in
14:49 76.5 °F 60.1 °F 30 in NE 8.5 mph 17.3 mph 57.1% 0 in
14:54 76.6 °F 60.8 °F 30 in ENE 8.5 mph 17.5 mph 58% 0 in
14:59 76.1 °F 60.4 °F 30 in ENE 8.9 mph 17.8 mph 58.5% 0 in
15:04 75.9 °F 60.6 °F 30 in ENE 9.7 mph 18 mph 59% 0 in
15:09 75.9 °F 60.4 °F 30 in ENE 8.9 mph 15.2 mph 58.5% 0 in
15:14 75.9 °F 60.3 °F 30 in ENE 7.6 mph 15 mph 58.2% 0 in
15:19 75.7 °F 60.1 °F 30 in ENE 7.8 mph 15.2 mph 58.1% 0 in
15:24 75.7 °F 60.4 °F 30 in Este 8.1 mph 15 mph 59.1% 0 in
15:29 75.6 °F 60.6 °F 30 in ENE 8.3 mph 15 mph 59.8% 0 in
15:34 75.6 °F 60.6 °F 30 in NE 8.7 mph 16.3 mph 59.7% 0 in
15:39 75.4 °F 60.4 °F 30 in ENE 8.7 mph 16 mph 59.7% 0 in
15:44 75.4 °F 60.4 °F 30 in Este 8.7 mph 14 mph 59.6% 0 in
15:49 75.4 °F 60.3 °F 30 in ENE 8.3 mph 13.8 mph 59.6% 0 in
15:54 75.4 °F 60.4 °F 30 in NE 7.6 mph 14 mph 60% 0 in
15:59 75.2 °F 60.8 °F 30 in ENE 7.6 mph 14 mph 61% 0 in
16:04 75 °F 60.6 °F 30 in ENE 7.6 mph 15 mph 60.9% 0 in
16:09 74.8 °F 60.4 °F 30 in ENE 7.9 mph 15 mph 61% 0 in
16:14 74.8 °F 60.8 °F 30 in ENE 8.5 mph 15.2 mph 61.9% 0 in
16:19 74.7 °F 60.3 °F 30 in ENE 8.5 mph 16.1 mph 61.1% 0 in
16:24 74.7 °F 60.3 °F 30 in ENE 8.5 mph 16 mph 60.8% 0 in
16:29 74.8 °F 60.4 °F 30 in NE 8 mph 15.9 mph 61% 0 in
16:34 74.5 °F 60.1 °F 30 in NE 6.9 mph 17.3 mph 61% 0 in
16:39 74.3 °F 60.4 °F 30 in ENE 7.9 mph 17 mph 62.3% 0 in
16:44 74.1 °F 60.6 °F 30 in ENE 9.7 mph 18.4 mph 62.8% 0 in
16:49 74.1 °F 60.8 °F 30 in ENE 9.8 mph 18 mph 63.4% 0 in
16:54 74.1 °F 60.6 °F 30 in NE 10 mph 17 mph 62.8% 0 in
16:59 74.1 °F 61 °F 30 in NE 9.1 mph 15.2 mph 63.6% 0 in
17:04 74.1 °F 61 °F 30 in ENE 7.6 mph 15 mph 63.6% 0 in
17:09 74.1 °F 61 °F 30 in ENE 8 mph 16.3 mph 63.4% 0 in
17:14 74.5 °F 60.4 °F 30 in NE 8.5 mph 16 mph 61.8% 0 in
17:19 74.5 °F 60.4 °F 30 in ENE 8.5 mph 16.1 mph 61.9% 0 in
17:24 74.7 °F 61 °F 30 in ENE 8.5 mph 16.1 mph 62.4% 0 in
17:29 74.8 °F 61 °F 30 in Este 8 mph 16 mph 62.1% 0 in
17:34 74.8 °F 60.6 °F 30 in NE 6.9 mph 16.1 mph 61.4% 0 in
17:39 74.7 °F 61 °F 30 in NE 7.3 mph 16 mph 62.4% 0 in
17:44 74.7 °F 61 °F 30 in ENE 8.1 mph 14 mph 62.4% 0 in
17:49 74.8 °F 60.8 °F 30 in NE 7.8 mph 16.1 mph 61.5% 0 in
17:54 75 °F 60.8 °F 30 in ENE 7.4 mph 16 mph 61.2% 0 in
17:59 75.2 °F 61 °F 30 in Este 7.2 mph 13 mph 61.2% 0 in
18:04 75.4 °F 60.6 °F 30 in NE 6.9 mph 13 mph 60.2% 0 in
18:09 75.4 °F 61 °F 30 in ENE 7.1 mph 13 mph 61.1% 0 in
18:14 75.2 °F 60.4 °F 30 in Este 7.4 mph 13 mph 60.2% 0 in
18:19 74.7 °F 60.6 °F 30 in NE 7.2 mph 12.3 mph 61.4% 0 in
18:24 74.5 °F 60.6 °F 30 in ENE 6.9 mph 14 mph 62% 0 in
18:29 74.3 °F 59.7 °F 30 in ENE 7.1 mph 16.1 mph 60.6% 0 in
18:34 74.1 °F 59 °F 30 in NE 7.4 mph 16 mph 59.3% 0 in
18:39 74.1 °F 59.7 °F 30 in NE 7.6 mph 14 mph 61% 0 in
18:44 73.9 °F 59.5 °F 30 in ENE 8.1 mph 14 mph 61% 0 in
18:49 73.9 °F 59.9 °F 30 in NE 7.5 mph 13 mph 61.7% 0 in
18:54 73.8 °F 59.9 °F 30 in ENE 6.4 mph 12.7 mph 61.9% 0 in
18:59 73.8 °F 60.1 °F 30 in ENE 6.3 mph 13 mph 62.3% 0 in
19:04 74.1 °F 60.1 °F 30 in ENE 6.2 mph 11.8 mph 61.6% 0 in
19:09 73.9 °F 60.1 °F 30 in ENE 6.3 mph 13.8 mph 61.8% 0 in
19:14 73.8 °F 59.9 °F 30 in NE 6.4 mph 14 mph 61.7% 0 in
19:19 73.8 °F 59.7 °F 30 in NE 6.8 mph 13 mph 61.6% 0 in
19:24 73.8 °F 60.1 °F 30 in NE 7.4 mph 13 mph 62.2% 0 in
19:29 73.9 °F 60.3 °F 30 in ENE 7 mph 13.8 mph 62.5% 0 in
19:34 73.8 °F 60.4 °F 30 in ENE 6.2 mph 14 mph 63% 0 in
19:39 73.8 °F 60.4 °F 30 in ENE 5.7 mph 9.7 mph 63.1% 0 in
19:44 73.6 °F 60.6 °F 30 in ENE 4.7 mph 10.7 mph 64% 0 in
19:49 73.4 °F 60.4 °F 30 in ENE 5.2 mph 11 mph 64% 0 in
19:54 73.2 °F 60.3 °F 30 in Este 6.2 mph 10.7 mph 64% 0 in
19:59 73 °F 60.3 °F 30 in ENE 6.2 mph 11 mph 64.3% 0 in
20:04 73 °F 60.6 °F 30 in NE 6.2 mph 10 mph 65% 0 in
20:09 73 °F 60.6 °F 30 in ENE 5.9 mph 8.5 mph 65% 0 in
20:14 72.9 °F 60.4 °F 30 in ENE 5.2 mph 9 mph 65% 0 in
20:19 73 °F 60.8 °F 30 in ENE 5 mph 8 mph 65.7% 0 in
20:24 73 °F 61 °F 30 in Este 4.7 mph 10.7 mph 66% 0 in
20:29 72.9 °F 60.8 °F 30 in Este 4.7 mph 11 mph 66% 0 in
20:34 72.9 °F 60.8 °F 30 in ENE 4.7 mph 10 mph 66% 0 in
20:39 72.7 °F 60.8 °F 30 in ENE 4.9 mph 9.2 mph 66.2% 0 in
20:44 72.7 °F 61.2 °F 30 in ENE 5.9 mph 9 mph 67% 0 in
20:49 72.7 °F 61.2 °F 30 in Este 5.4 mph 8 mph 67% 0 in
20:54 72.7 °F 61.2 °F 30 in ENE 3.6 mph 6.9 mph 67% 0 in
20:59 72.7 °F 60.8 °F 30 in ENE 3.5 mph 7 mph 66.3% 0 in
21:04 72.3 °F 60.4 °F 30 in NE 3.1 mph 6.2 mph 66% 0 in
21:09 72.3 °F 60.1 °F 30 in NE 3.4 mph 6.2 mph 65.4% 0 in
21:14 72.1 °F 59.7 °F 30 in NE 4 mph 8.7 mph 65% 0 in
21:19 72.1 °F 59.9 °F 30 in NE 4.3 mph 9.2 mph 65.5% 0 in
21:24 72 °F 60.1 °F 30 in NE 4.7 mph 9 mph 66.3% 0 in
21:29 72 °F 60.4 °F 30 in ENE 4.5 mph 6 mph 67% 0 in
21:34 72 °F 60.3 °F 30 in NE 4 mph 5.2 mph 67% 0 in
21:39 71.8 °F 60.3 °F 30 in NE 3.7 mph 5.2 mph 67% 0 in
21:44 71.8 °F 60.3 °F 30 in NE 3.1 mph 5 mph 67% 0 in
21:49 71.8 °F 60.4 °F 30 in NE 3.1 mph 5.2 mph 67.7% 0 in
21:54 71.6 °F 60.4 °F 30 in ENE 3.1 mph 5.9 mph 68% 0 in
21:59 71.6 °F 60.4 °F 30 in NE 3 mph 6 mph 68% 0 in
22:04 71.4 °F 60.4 °F 30 in NE 2.9 mph 6 mph 68.5% 0 in
22:09 71.2 °F 60.4 °F 30 in NE 3.1 mph 6 mph 69% 0 in
22:14 71.1 °F 60.8 °F 30 in NE 3.6 mph 6 mph 69.7% 0 in
22:19 71.1 °F 60.8 °F 30 in NE 3.6 mph 5.2 mph 70% 0 in
22:24 70.9 °F 60.6 °F 30 in NE 3.6 mph 5.2 mph 70% 0 in
22:29 70.9 °F 61 °F 30 in NE 3.4 mph 5.2 mph 71% 0 in
22:34 70.9 °F 61 °F 30 in NE 2.9 mph 5 mph 71% 0 in
22:39 70.7 °F 60.8 °F 30 in NE 2.9 mph 5 mph 71% 0 in
22:44 70.5 °F 61 °F 30 in NE 3.1 mph 5 mph 71.8% 0 in
22:49 70.5 °F 61.2 °F 30 in ENE 2.9 mph 5 mph 72% 0 in
22:54 70.5 °F 61.2 °F 30 in ENE 2.4 mph 5.2 mph 72% 0 in
22:59 70.3 °F 61.2 °F 30 in NE 2.4 mph 5 mph 72.4% 0 in
23:04 70.3 °F 61.3 °F 30 in ENE 2.4 mph 5 mph 73% 0 in
23:09 70.2 °F 61.2 °F 30 in NE 2.5 mph 5 mph 73% 0 in
23:14 70.2 °F 61.2 °F 30 in ENE 2.9 mph 5 mph 73% 0 in
23:19 70 °F 60.8 °F 30 in Este 2.7 mph 5 mph 72.7% 0 in
23:24 69.8 °F 60.6 °F 30 in ESE 2.4 mph 5 mph 72.7% 0 in
23:29 69.6 °F 60.3 °F 30 in ESE 2.1 mph 5 mph 72% 0 in
23:34 69.6 °F 60.1 °F 30 in ESE 1.4 mph 3.6 mph 71.7% 0 in
23:39 69.6 °F 59.7 °F 30 in ESE 1.4 mph 4 mph 70.9% 0 in
23:44 69.6 °F 59.4 °F 30 in ESE 1.4 mph 4.6 mph 70% 0 in
23:49 69.4 °F 59.2 °F 30 in ESE 1.7 mph 5 mph 69.6% 0 in
23:54 69.4 °F 59.2 °F 30 in ESE 2.4 mph 5 mph 70% 0 in
23:59 69.4 °F 59.2 °F 30 in ESE 2.2 mph 5 mph 70% 0 in
Murcia-Puente Tocinos, España
Compliments of Weather Underground - 3 mb

La estación de MeteoMurcia.com, publica sus datos en los siguientes proyectos:

Weather Underground PWS IMURCIAP2 Meteoclimatic www.awekas.at

W3Counter
Web Analytics